sensor_id;sensor_type;location;lat;lon;timestamp;P1;durP1;ratioP1;P2;durP2;ratioP2
24857;SDS011;12935;50.782;6.074;2024-03-17T00:01:32;123.00;;;96.13;;
24857;SDS011;12935;50.782;6.074;2024-03-17T00:03:57;116.73;;;94.27;;
24857;SDS011;12935;50.782;6.074;2024-03-17T00:06:23;108.55;;;89.80;;
24857;SDS011;12935;50.782;6.074;2024-03-17T00:08:49;109.47;;;92.97;;
24857;SDS011;12935;50.782;6.074;2024-03-17T00:11:15;133.30;;;101.30;;
24857;SDS011;12935;50.782;6.074;2024-03-17T00:13:41;111.03;;;93.50;;
24857;SDS011;12935;50.782;6.074;2024-03-17T00:16:06;104.40;;;90.67;;
24857;SDS011;12935;50.782;6.074;2024-03-17T00:18:32;111.97;;;90.87;;
24857;SDS011;12935;50.782;6.074;2024-03-17T00:20:57;116.80;;;93.60;;
24857;SDS011;12935;50.782;6.074;2024-03-17T00:23:22;113.40;;;91.47;;
24857;SDS011;12935;50.782;6.074;2024-03-17T00:25:48;110.30;;;91.00;;
24857;SDS011;12935;50.782;6.074;2024-03-17T00:28:13;107.70;;;90.93;;
24857;SDS011;12935;50.782;6.074;2024-03-17T00:30:38;101.03;;;89.00;;
24857;SDS011;12935;50.782;6.074;2024-03-17T00:33:04;113.27;;;92.97;;
24857;SDS011;12935;50.782;6.074;2024-03-17T00:35:29;111.40;;;92.53;;
24857;SDS011;12935;50.782;6.074;2024-03-17T00:37:55;100.55;;;88.40;;
24857;SDS011;12935;50.782;6.074;2024-03-17T00:40:21;102.50;;;90.57;;
24857;SDS011;12935;50.782;6.074;2024-03-17T00:42:46;110.00;;;93.13;;
24857;SDS011;12935;50.782;6.074;2024-03-17T00:45:12;98.67;;;87.53;;
24857;SDS011;12935;50.782;6.074;2024-03-17T00:47:37;102.83;;;88.60;;
24857;SDS011;12935;50.782;6.074;2024-03-17T00:50:03;102.23;;;89.57;;
24857;SDS011;12935;50.782;6.074;2024-03-17T00:52:31;113.30;;;91.55;;
24857;SDS011;12935;50.782;6.074;2024-03-17T00:54:56;107.10;;;89.30;;
24857;SDS011;12935;50.782;6.074;2024-03-17T00:57:22;100.20;;;89.40;;
24857;SDS011;12935;50.782;6.074;2024-03-17T00:59:47;112.40;;;92.10;;
24857;SDS011;12935;50.782;6.074;2024-03-17T01:02:12;108.27;;;90.83;;
24857;SDS011;12935;50.782;6.074;2024-03-17T01:04:41;110.97;;;90.78;;
24857;SDS011;12935;50.782;6.074;2024-03-17T01:07:06;119.13;;;93.17;;
24857;SDS011;12935;50.782;6.074;2024-03-17T01:09:32;117.23;;;94.80;;
24857;SDS011;12935;50.782;6.074;2024-03-17T01:11:57;105.83;;;88.70;;
24857;SDS011;12935;50.782;6.074;2024-03-17T01:14:22;129.87;;;97.83;;
24857;SDS011;12935;50.782;6.074;2024-03-17T01:16:48;125.60;;;96.83;;
24857;SDS011;12935;50.782;6.074;2024-03-17T01:19:15;108.88;;;90.93;;
24857;SDS011;12935;50.782;6.074;2024-03-17T01:21:41;112.40;;;91.87;;
24857;SDS011;12935;50.782;6.074;2024-03-17T01:24:06;113.23;;;93.57;;
24857;SDS011;12935;50.782;6.074;2024-03-17T01:26:32;128.93;;;95.83;;
24857;SDS011;12935;50.782;6.074;2024-03-17T01:28:57;123.07;;;96.10;;
24857;SDS011;12935;50.782;6.074;2024-03-17T01:31:22;110.33;;;92.97;;
24857;SDS011;12935;50.782;6.074;2024-03-17T01:33:47;116.23;;;93.97;;
24857;SDS011;12935;50.782;6.074;2024-03-17T01:36:13;125.60;;;98.70;;
24857;SDS011;12935;50.782;6.074;2024-03-17T01:38:38;108.27;;;91.60;;
24857;SDS011;12935;50.782;6.074;2024-03-17T01:41:03;133.47;;;103.50;;
24857;SDS011;12935;50.782;6.074;2024-03-17T01:43:29;109.30;;;91.30;;
24857;SDS011;12935;50.782;6.074;2024-03-17T01:45:55;101.60;;;89.33;;
24857;SDS011;12935;50.782;6.074;2024-03-17T01:48:21;109.50;;;90.53;;
24857;SDS011;12935;50.782;6.074;2024-03-17T01:50:48;124.30;;;97.27;;
24857;SDS011;12935;50.782;6.074;2024-03-17T01:53:16;100.07;;;88.78;;
24857;SDS011;12935;50.782;6.074;2024-03-17T01:55:42;104.33;;;90.47;;
24857;SDS011;12935;50.782;6.074;2024-03-17T01:58:09;105.97;;;91.97;;
24857;SDS011;12935;50.782;6.074;2024-03-17T02:00:38;108.07;;;90.22;;
24857;SDS011;12935;50.782;6.074;2024-03-17T02:03:04;101.53;;;90.90;;
24857;SDS011;12935;50.782;6.074;2024-03-17T02:05:33;110.30;;;90.70;;
24857;SDS011;12935;50.782;6.074;2024-03-17T02:08:00;105.10;;;91.00;;
24857;SDS011;12935;50.782;6.074;2024-03-17T02:10:25;106.47;;;91.30;;
24857;SDS011;12935;50.782;6.074;2024-03-17T02:12:51;101.87;;;88.40;;
24857;SDS011;12935;50.782;6.074;2024-03-17T02:15:17;124.10;;;99.65;;
24857;SDS011;12935;50.782;6.074;2024-03-17T02:17:43;107.40;;;92.20;;
24857;SDS011;12935;50.782;6.074;2024-03-17T02:20:08;103.40;;;89.40;;
24857;SDS011;12935;50.782;6.074;2024-03-17T02:22:36;108.85;;;90.50;;
24857;SDS011;12935;50.782;6.074;2024-03-17T02:25:04;107.40;;;91.95;;
24857;SDS011;12935;50.782;6.074;2024-03-17T02:27:33;124.75;;;94.95;;
24857;SDS011;12935;50.782;6.074;2024-03-17T02:29:58;115.87;;;94.50;;
24857;SDS011;12935;50.782;6.074;2024-03-17T02:32:23;110.20;;;91.03;;
24857;SDS011;12935;50.782;6.074;2024-03-17T02:34:50;106.15;;;89.07;;
24857;SDS011;12935;50.782;6.074;2024-03-17T02:37:15;112.60;;;91.07;;
24857;SDS011;12935;50.782;6.074;2024-03-17T02:39:40;115.73;;;94.00;;
24857;SDS011;12935;50.782;6.074;2024-03-17T02:42:07;110.30;;;90.80;;
24857;SDS011;12935;50.782;6.074;2024-03-17T02:44:34;121.63;;;92.47;;
24857;SDS011;12935;50.782;6.074;2024-03-17T02:47:01;105.45;;;89.50;;
24857;SDS011;12935;50.782;6.074;2024-03-17T02:49:29;98.65;;;85.63;;
24857;SDS011;12935;50.782;6.074;2024-03-17T02:52:01;107.80;;;90.30;;
24857;SDS011;12935;50.782;6.074;2024-03-17T02:54:26;125.63;;;96.37;;
24857;SDS011;12935;50.782;6.074;2024-03-17T02:56:52;103.23;;;90.47;;
24857;SDS011;12935;50.782;6.074;2024-03-17T02:59:17;100.73;;;89.63;;
24857;SDS011;12935;50.782;6.074;2024-03-17T03:01:42;102.80;;;87.43;;
24857;SDS011;12935;50.782;6.074;2024-03-17T03:04:08;106.47;;;89.90;;
24857;SDS011;12935;50.782;6.074;2024-03-17T03:06:33;97.30;;;86.40;;
24857;SDS011;12935;50.782;6.074;2024-03-17T03:08:59;107.00;;;91.30;;
24857;SDS011;12935;50.782;6.074;2024-03-17T03:11:24;109.60;;;92.00;;
24857;SDS011;12935;50.782;6.074;2024-03-17T03:13:50;98.77;;;88.07;;
24857;SDS011;12935;50.782;6.074;2024-03-17T03:16:15;96.63;;;86.17;;
24857;SDS011;12935;50.782;6.074;2024-03-17T03:18:41;112.20;;;90.40;;
24857;SDS011;12935;50.782;6.074;2024-03-17T03:21:07;120.80;;;96.13;;
24857;SDS011;12935;50.782;6.074;2024-03-17T03:23:33;105.63;;;88.00;;
24857;SDS011;12935;50.782;6.074;2024-03-17T03:25:59;133.10;;;100.43;;
24857;SDS011;12935;50.782;6.074;2024-03-17T03:28:25;107.53;;;89.78;;
24857;SDS011;12935;50.782;6.074;2024-03-17T03:30:51;93.18;;;83.57;;
24857;SDS011;12935;50.782;6.074;2024-03-17T03:33:18;114.57;;;92.47;;
24857;SDS011;12935;50.782;6.074;2024-03-17T03:35:44;107.18;;;91.57;;
24857;SDS011;12935;50.782;6.074;2024-03-17T03:38:10;96.75;;;85.95;;
24857;SDS011;12935;50.782;6.074;2024-03-17T03:40:36;128.30;;;93.20;;
24857;SDS011;12935;50.782;6.074;2024-03-17T03:43:01;126.30;;;95.77;;
24857;SDS011;12935;50.782;6.074;2024-03-17T03:45:27;106.47;;;91.60;;
24857;SDS011;12935;50.782;6.074;2024-03-17T03:47:52;98.97;;;87.97;;
24857;SDS011;12935;50.782;6.074;2024-03-17T03:50:19;104.47;;;89.60;;
24857;SDS011;12935;50.782;6.074;2024-03-17T03:52:46;112.55;;;91.40;;
24857;SDS011;12935;50.782;6.074;2024-03-17T03:55:12;110.17;;;91.20;;
24857;SDS011;12935;50.782;6.074;2024-03-17T03:57:41;115.93;;;91.82;;
24857;SDS011;12935;50.782;6.074;2024-03-17T04:00:07;110.97;;;90.30;;
24857;SDS011;12935;50.782;6.074;2024-03-17T04:02:41;105.15;;;88.28;;
24857;SDS011;12935;50.782;6.074;2024-03-17T04:05:07;105.82;;;91.90;;
24857;SDS011;12935;50.782;6.074;2024-03-17T04:07:33;95.27;;;85.13;;
24857;SDS011;12935;50.782;6.074;2024-03-17T04:09:59;102.05;;;87.75;;
24857;SDS011;12935;50.782;6.074;2024-03-17T04:12:24;110.30;;;92.67;;
24857;SDS011;12935;50.782;6.074;2024-03-17T04:14:50;105.97;;;89.80;;
24857;SDS011;12935;50.782;6.074;2024-03-17T04:17:21;104.80;;;90.60;;
24857;SDS011;12935;50.782;6.074;2024-03-17T04:19:47;121.95;;;95.05;;
24857;SDS011;12935;50.782;6.074;2024-03-17T04:22:13;109.60;;;90.78;;
24857;SDS011;12935;50.782;6.074;2024-03-17T04:24:39;108.85;;;90.07;;
24857;SDS011;12935;50.782;6.074;2024-03-17T04:27:05;102.10;;;90.93;;
24857;SDS011;12935;50.782;6.074;2024-03-17T04:29:30;104.87;;;89.80;;
24857;SDS011;12935;50.782;6.074;2024-03-17T04:31:55;105.23;;;90.03;;
24857;SDS011;12935;50.782;6.074;2024-03-17T04:34:20;106.10;;;90.27;;
24857;SDS011;12935;50.782;6.074;2024-03-17T04:36:46;103.70;;;88.57;;
24857;SDS011;12935;50.782;6.074;2024-03-17T04:39:11;99.87;;;87.73;;
24857;SDS011;12935;50.782;6.074;2024-03-17T04:41:37;99.67;;;87.63;;
24857;SDS011;12935;50.782;6.074;2024-03-17T04:44:04;101.10;;;89.28;;
24857;SDS011;12935;50.782;6.074;2024-03-17T04:46:31;100.60;;;87.75;;
24857;SDS011;12935;50.782;6.074;2024-03-17T04:48:57;106.83;;;88.63;;
24857;SDS011;12935;50.782;6.074;2024-03-17T04:51:22;107.70;;;91.97;;
24857;SDS011;12935;50.782;6.074;2024-03-17T04:53:47;108.90;;;90.90;;
24857;SDS011;12935;50.782;6.074;2024-03-17T04:56:12;109.80;;;90.73;;
24857;SDS011;12935;50.782;6.074;2024-03-17T04:58:38;102.83;;;89.50;;
24857;SDS011;12935;50.782;6.074;2024-03-17T05:01:09;104.97;;;88.67;;
24857;SDS011;12935;50.782;6.074;2024-03-17T05:03:35;113.57;;;92.18;;
24857;SDS011;12935;50.782;6.074;2024-03-17T05:06:04;107.07;;;89.37;;
24857;SDS011;12935;50.782;6.074;2024-03-17T05:08:31;104.25;;;90.32;;
24857;SDS011;12935;50.782;6.074;2024-03-17T05:13:26;103.07;;;87.50;;
24857;SDS011;12935;50.782;6.074;2024-03-17T05:15:52;95.97;;;85.68;;
24857;SDS011;12935;50.782;6.074;2024-03-17T05:18:18;101.40;;;89.13;;
24857;SDS011;12935;50.782;6.074;2024-03-17T05:20:44;105.00;;;90.13;;
24857;SDS011;12935;50.782;6.074;2024-03-17T05:23:12;102.32;;;90.80;;
24857;SDS011;12935;50.782;6.074;2024-03-17T05:25:37;102.30;;;89.20;;
24857;SDS011;12935;50.782;6.074;2024-03-17T05:28:03;100.80;;;87.40;;
24857;SDS011;12935;50.782;6.074;2024-03-17T05:30:28;101.50;;;88.25;;
24857;SDS011;12935;50.782;6.074;2024-03-17T05:32:55;107.15;;;89.97;;
24857;SDS011;12935;50.782;6.074;2024-03-17T05:35:20;101.17;;;87.90;;
24857;SDS011;12935;50.782;6.074;2024-03-17T05:37:46;98.30;;;87.03;;
24857;SDS011;12935;50.782;6.074;2024-03-17T05:40:11;109.80;;;90.37;;
24857;SDS011;12935;50.782;6.074;2024-03-17T05:42:41;101.32;;;88.55;;
24857;SDS011;12935;50.782;6.074;2024-03-17T05:45:07;104.63;;;89.95;;
24857;SDS011;12935;50.782;6.074;2024-03-17T05:47:36;111.97;;;91.88;;
24857;SDS011;12935;50.782;6.074;2024-03-17T05:50:02;126.23;;;96.73;;
24857;SDS011;12935;50.782;6.074;2024-03-17T05:52:27;97.60;;;86.87;;
24857;SDS011;12935;50.782;6.074;2024-03-17T05:54:52;104.13;;;90.40;;
24857;SDS011;12935;50.782;6.074;2024-03-17T05:57:17;124.57;;;95.97;;
24857;SDS011;12935;50.782;6.074;2024-03-17T05:59:43;104.63;;;90.10;;
24857;SDS011;12935;50.782;6.074;2024-03-17T06:02:08;107.10;;;90.77;;
24857;SDS011;12935;50.782;6.074;2024-03-17T06:04:35;115.47;;;96.45;;
24857;SDS011;12935;50.782;6.074;2024-03-17T06:07:00;107.97;;;91.80;;
24857;SDS011;12935;50.782;6.074;2024-03-17T06:09:25;99.03;;;86.47;;
24857;SDS011;12935;50.782;6.074;2024-03-17T06:11:51;103.53;;;88.63;;
24857;SDS011;12935;50.782;6.074;2024-03-17T06:14:16;109.73;;;90.73;;
24857;SDS011;12935;50.782;6.074;2024-03-17T06:16:41;114.73;;;93.40;;
24857;SDS011;12935;50.782;6.074;2024-03-17T06:19:07;100.63;;;88.67;;
24857;SDS011;12935;50.782;6.074;2024-03-17T06:21:32;108.73;;;91.27;;
24857;SDS011;12935;50.782;6.074;2024-03-17T06:23:57;100.17;;;87.93;;
24857;SDS011;12935;50.782;6.074;2024-03-17T06:26:22;104.90;;;89.43;;
24857;SDS011;12935;50.782;6.074;2024-03-17T06:28:48;104.40;;;89.20;;
24857;SDS011;12935;50.782;6.074;2024-03-17T06:31:13;126.07;;;99.47;;
24857;SDS011;12935;50.782;6.074;2024-03-17T06:33:38;123.13;;;95.60;;
24857;SDS011;12935;50.782;6.074;2024-03-17T06:36:04;105.57;;;89.40;;
24857;SDS011;12935;50.782;6.074;2024-03-17T06:38:30;111.57;;;92.72;;
24857;SDS011;12935;50.782;6.074;2024-03-17T06:40:56;152.27;;;103.57;;
24857;SDS011;12935;50.782;6.074;2024-03-17T06:43:21;112.63;;;92.63;;
24857;SDS011;12935;50.782;6.074;2024-03-17T06:45:53;117.70;;;94.03;;
24857;SDS011;12935;50.782;6.074;2024-03-17T06:48:23;115.05;;;92.72;;
24857;SDS011;12935;50.782;6.074;2024-03-17T06:50:48;106.17;;;90.60;;
24857;SDS011;12935;50.782;6.074;2024-03-17T06:53:13;105.33;;;91.33;;
24857;SDS011;12935;50.782;6.074;2024-03-17T06:55:39;112.37;;;93.47;;
24857;SDS011;12935;50.782;6.074;2024-03-17T06:58:04;105.10;;;92.03;;
24857;SDS011;12935;50.782;6.074;2024-03-17T07:00:29;111.30;;;92.43;;
24857;SDS011;12935;50.782;6.074;2024-03-17T07:02:54;107.13;;;91.80;;
24857;SDS011;12935;50.782;6.074;2024-03-17T07:05:20;109.23;;;91.10;;
24857;SDS011;12935;50.782;6.074;2024-03-17T07:07:45;106.87;;;92.30;;
24857;SDS011;12935;50.782;6.074;2024-03-17T07:10:11;99.87;;;88.90;;
24857;SDS011;12935;50.782;6.074;2024-03-17T07:12:37;111.32;;;92.20;;
24857;SDS011;12935;50.782;6.074;2024-03-17T07:15:03;117.30;;;94.00;;
24857;SDS011;12935;50.782;6.074;2024-03-17T07:17:29;114.60;;;93.80;;
24857;SDS011;12935;50.782;6.074;2024-03-17T07:19:54;124.77;;;95.10;;
24857;SDS011;12935;50.782;6.074;2024-03-17T07:22:20;122.50;;;95.73;;
24857;SDS011;12935;50.782;6.074;2024-03-17T07:24:47;111.93;;;94.57;;
24857;SDS011;12935;50.782;6.074;2024-03-17T07:27:12;107.37;;;91.07;;
24857;SDS011;12935;50.782;6.074;2024-03-17T07:29:39;104.80;;;90.00;;
24857;SDS011;12935;50.782;6.074;2024-03-17T07:32:05;110.35;;;91.93;;
24857;SDS011;12935;50.782;6.074;2024-03-17T07:34:31;115.97;;;94.15;;
24857;SDS011;12935;50.782;6.074;2024-03-17T07:36:57;117.17;;;97.00;;
24857;SDS011;12935;50.782;6.074;2024-03-17T07:39:25;117.10;;;92.03;;
24857;SDS011;12935;50.782;6.074;2024-03-17T07:41:55;116.80;;;96.65;;
24857;SDS011;12935;50.782;6.074;2024-03-17T07:44:21;125.22;;;97.47;;
24857;SDS011;12935;50.782;6.074;2024-03-17T07:46:47;131.20;;;98.15;;
24857;SDS011;12935;50.782;6.074;2024-03-17T07:49:12;120.00;;;94.50;;
24857;SDS011;12935;50.782;6.074;2024-03-17T07:51:39;112.03;;;92.85;;
24857;SDS011;12935;50.782;6.074;2024-03-17T07:54:05;111.63;;;93.33;;
24857;SDS011;12935;50.782;6.074;2024-03-17T07:56:30;104.17;;;88.30;;
24857;SDS011;12935;50.782;6.074;2024-03-17T07:58:55;112.23;;;91.97;;
24857;SDS011;12935;50.782;6.074;2024-03-17T08:01:21;138.63;;;105.27;;
24857;SDS011;12935;50.782;6.074;2024-03-17T08:03:47;122.67;;;98.07;;
24857;SDS011;12935;50.782;6.074;2024-03-17T08:06:20;114.00;;;92.57;;
24857;SDS011;12935;50.782;6.074;2024-03-17T08:08:46;111.85;;;93.63;;
24857;SDS011;12935;50.782;6.074;2024-03-17T08:11:11;145.10;;;105.37;;
24857;SDS011;12935;50.782;6.074;2024-03-17T08:13:37;129.30;;;98.20;;
24857;SDS011;12935;50.782;6.074;2024-03-17T08:16:03;110.27;;;93.17;;
24857;SDS011;12935;50.782;6.074;2024-03-17T08:18:35;127.00;;;98.65;;
24857;SDS011;12935;50.782;6.074;2024-03-17T08:21:01;112.80;;;94.80;;
24857;SDS011;12935;50.782;6.074;2024-03-17T08:23:29;125.38;;;98.43;;
24857;SDS011;12935;50.782;6.074;2024-03-17T08:25:58;132.00;;;99.43;;
24857;SDS011;12935;50.782;6.074;2024-03-17T08:28:24;118.00;;;94.95;;
24857;SDS011;12935;50.782;6.074;2024-03-17T08:30:54;131.00;;;101.22;;
24857;SDS011;12935;50.782;6.074;2024-03-17T08:33:23;131.15;;;99.68;;
24857;SDS011;12935;50.782;6.074;2024-03-17T08:35:56;112.65;;;92.55;;
24857;SDS011;12935;50.782;6.074;2024-03-17T08:38:27;112.35;;;95.53;;
24857;SDS011;12935;50.782;6.074;2024-03-17T08:40:53;136.90;;;102.93;;
24857;SDS011;12935;50.782;6.074;2024-03-17T08:43:20;124.85;;;97.93;;
24857;SDS011;12935;50.782;6.074;2024-03-17T08:45:59;128.40;;;99.88;;
24857;SDS011;12935;50.782;6.074;2024-03-17T08:48:28;138.13;;;101.90;;
24857;SDS011;12935;50.782;6.074;2024-03-17T08:50:57;116.35;;;96.35;;
24857;SDS011;12935;50.782;6.074;2024-03-17T08:53:23;134.88;;;103.15;;
24857;SDS011;12935;50.782;6.074;2024-03-17T08:55:49;123.85;;;101.75;;
24857;SDS011;12935;50.782;6.074;2024-03-17T08:58:18;123.07;;;96.95;;
24857;SDS011;12935;50.782;6.074;2024-03-17T09:00:44;140.40;;;103.33;;
24857;SDS011;12935;50.782;6.074;2024-03-17T09:03:10;136.95;;;104.10;;
24857;SDS011;12935;50.782;6.074;2024-03-17T09:05:37;130.55;;;99.78;;
24857;SDS011;12935;50.782;6.074;2024-03-17T09:08:06;117.90;;;97.25;;
24857;SDS011;12935;50.782;6.074;2024-03-17T09:10:38;127.40;;;99.05;;
24857;SDS011;12935;50.782;6.074;2024-03-17T09:13:07;129.20;;;101.47;;
24857;SDS011;12935;50.782;6.074;2024-03-17T09:15:36;124.50;;;97.82;;
24857;SDS011;12935;50.782;6.074;2024-03-17T09:18:01;137.10;;;104.77;;
24857;SDS011;12935;50.782;6.074;2024-03-17T09:20:28;124.15;;;100.18;;
24857;SDS011;12935;50.782;6.074;2024-03-17T09:22:53;160.40;;;110.30;;
24857;SDS011;12935;50.782;6.074;2024-03-17T09:25:19;133.13;;;101.67;;
24857;SDS011;12935;50.782;6.074;2024-03-17T09:27:44;129.80;;;101.13;;
24857;SDS011;12935;50.782;6.074;2024-03-17T09:30:10;144.47;;;107.33;;
24857;SDS011;12935;50.782;6.074;2024-03-17T09:32:36;126.25;;;99.50;;
24857;SDS011;12935;50.782;6.074;2024-03-17T09:35:01;137.57;;;101.63;;
24857;SDS011;12935;50.782;6.074;2024-03-17T09:37:28;127.60;;;101.17;;
24857;SDS011;12935;50.782;6.074;2024-03-17T09:39:56;122.45;;;98.95;;
24857;SDS011;12935;50.782;6.074;2024-03-17T09:42:22;132.43;;;105.28;;
24857;SDS011;12935;50.782;6.074;2024-03-17T09:44:48;138.63;;;104.90;;
24857;SDS011;12935;50.782;6.074;2024-03-17T09:47:19;132.15;;;102.35;;
24857;SDS011;12935;50.782;6.074;2024-03-17T09:49:46;137.52;;;104.10;;
24857;SDS011;12935;50.782;6.074;2024-03-17T09:52:18;120.93;;;98.70;;
24857;SDS011;12935;50.782;6.074;2024-03-17T09:54:46;150.20;;;101.47;;
24857;SDS011;12935;50.782;6.074;2024-03-17T09:57:14;136.90;;;102.47;;
24857;SDS011;12935;50.782;6.074;2024-03-17T09:59:42;132.90;;;102.03;;
24857;SDS011;12935;50.782;6.074;2024-03-17T10:02:09;133.60;;;102.30;;
24857;SDS011;12935;50.782;6.074;2024-03-17T10:04:41;141.93;;;102.60;;
24857;SDS011;12935;50.782;6.074;2024-03-17T10:07:06;120.23;;;97.63;;
24857;SDS011;12935;50.782;6.074;2024-03-17T10:09:31;135.83;;;103.77;;
24857;SDS011;12935;50.782;6.074;2024-03-17T10:11:57;124.37;;;99.60;;
24857;SDS011;12935;50.782;6.074;2024-03-17T10:14:23;130.57;;;100.53;;
24857;SDS011;12935;50.782;6.074;2024-03-17T10:16:48;140.13;;;104.10;;
24857;SDS011;12935;50.782;6.074;2024-03-17T10:19:14;144.27;;;104.47;;
24857;SDS011;12935;50.782;6.074;2024-03-17T10:21:44;119.82;;;96.15;;
24857;SDS011;12935;50.782;6.074;2024-03-17T10:24:21;128.35;;;99.75;;
24857;SDS011;12935;50.782;6.074;2024-03-17T10:26:54;141.93;;;105.00;;
24857;SDS011;12935;50.782;6.074;2024-03-17T10:29:24;128.27;;;99.65;;
24857;SDS011;12935;50.782;6.074;2024-03-17T10:32:13;146.20;;;106.80;;
24857;SDS011;12935;50.782;6.074;2024-03-17T10:34:41;140.65;;;105.07;;
24857;SDS011;12935;50.782;6.074;2024-03-17T10:37:10;130.83;;;98.70;;
24857;SDS011;12935;50.782;6.074;2024-03-17T10:39:42;153.05;;;107.55;;
24857;SDS011;12935;50.782;6.074;2024-03-17T10:42:13;130.88;;;101.32;;
24857;SDS011;12935;50.782;6.074;2024-03-17T10:44:39;123.38;;;98.45;;
24857;SDS011;12935;50.782;6.074;2024-03-17T10:47:06;126.28;;;98.50;;
24857;SDS011;12935;50.782;6.074;2024-03-17T10:49:35;144.10;;;105.40;;
24857;SDS011;12935;50.782;6.074;2024-03-17T10:52:04;124.97;;;99.55;;
24857;SDS011;12935;50.782;6.074;2024-03-17T10:54:31;134.00;;;100.97;;
24857;SDS011;12935;50.782;6.074;2024-03-17T10:57:05;141.18;;;103.57;;
24857;SDS011;12935;50.782;6.074;2024-03-17T10:59:50;116.05;;;95.10;;
24857;SDS011;12935;50.782;6.074;2024-03-17T11:02:21;134.70;;;102.55;;
24857;SDS011;12935;50.782;6.074;2024-03-17T11:04:57;124.85;;;100.22;;
24857;SDS011;12935;50.782;6.074;2024-03-17T11:07:24;134.55;;;101.57;;
24857;SDS011;12935;50.782;6.074;2024-03-17T11:09:51;126.70;;;97.03;;
24857;SDS011;12935;50.782;6.074;2024-03-17T11:20:21;133.13;;;103.00;;
24857;SDS011;12935;50.782;6.074;2024-03-17T11:22:51;123.32;;;99.65;;
24857;SDS011;12935;50.782;6.074;2024-03-17T11:27:52;140.60;;;101.53;;
24857;SDS011;12935;50.782;6.074;2024-03-17T11:51:50;129.88;;;98.00;;
24857;SDS011;12935;50.782;6.074;2024-03-17T11:54:17;131.27;;;100.33;;
24857;SDS011;12935;50.782;6.074;2024-03-17T11:56:50;136.25;;;100.95;;
24857;SDS011;12935;50.782;6.074;2024-03-17T11:59:16;133.68;;;102.47;;
24857;SDS011;12935;50.782;6.074;2024-03-17T12:01:46;137.65;;;101.50;;
24857;SDS011;12935;50.782;6.074;2024-03-17T12:04:19;143.77;;;104.68;;
24857;SDS011;12935;50.782;6.074;2024-03-17T12:06:49;137.13;;;104.13;;
24857;SDS011;12935;50.782;6.074;2024-03-17T12:14:26;134.32;;;102.10;;
24857;SDS011;12935;50.782;6.074;2024-03-17T12:16:53;139.03;;;102.50;;
24857;SDS011;12935;50.782;6.074;2024-03-17T12:19:19;146.32;;;104.03;;
24857;SDS011;12935;50.782;6.074;2024-03-17T12:21:45;131.70;;;101.60;;
24857;SDS011;12935;50.782;6.074;2024-03-17T12:24:19;141.05;;;103.13;;
24857;SDS011;12935;50.782;6.074;2024-03-17T12:26:46;141.18;;;104.80;;
24857;SDS011;12935;50.782;6.074;2024-03-17T12:29:34;128.57;;;99.07;;
24857;SDS011;12935;50.782;6.074;2024-03-17T12:32:01;133.00;;;100.72;;
24857;SDS011;12935;50.782;6.074;2024-03-17T12:34:30;128.18;;;98.45;;
24857;SDS011;12935;50.782;6.074;2024-03-17T12:36:57;126.30;;;98.57;;
24857;SDS011;12935;50.782;6.074;2024-03-17T12:39:24;134.80;;;99.00;;
24857;SDS011;12935;50.782;6.074;2024-03-17T12:42:09;120.30;;;97.05;;
24857;SDS011;12935;50.782;6.074;2024-03-17T12:44:37;136.77;;;101.93;;
24857;SDS011;12935;50.782;6.074;2024-03-17T12:47:08;154.45;;;105.75;;
24857;SDS011;12935;50.782;6.074;2024-03-17T12:49:43;133.32;;;99.13;;
24857;SDS011;12935;50.782;6.074;2024-03-17T12:52:23;135.23;;;101.10;;
24857;SDS011;12935;50.782;6.074;2024-03-17T12:54:58;147.18;;;106.85;;
24857;SDS011;12935;50.782;6.074;2024-03-17T12:57:42;130.38;;;102.07;;
24857;SDS011;12935;50.782;6.074;2024-03-17T13:00:27;124.75;;;97.57;;
24857;SDS011;12935;50.782;6.074;2024-03-17T13:02:59;146.00;;;102.50;;
24857;SDS011;12935;50.782;6.074;2024-03-17T13:05:26;128.07;;;99.15;;
24857;SDS011;12935;50.782;6.074;2024-03-17T13:07:52;124.07;;;98.67;;
24857;SDS011;12935;50.782;6.074;2024-03-17T13:10:19;129.85;;;101.78;;
24857;SDS011;12935;50.782;6.074;2024-03-17T13:12:45;132.70;;;101.07;;
24857;SDS011;12935;50.782;6.074;2024-03-17T13:15:12;118.55;;;95.85;;
24857;SDS011;12935;50.782;6.074;2024-03-17T13:17:44;153.60;;;108.85;;
24857;SDS011;12935;50.782;6.074;2024-03-17T13:20:16;128.55;;;100.22;;
24857;SDS011;12935;50.782;6.074;2024-03-17T13:22:42;128.23;;;100.72;;
24857;SDS011;12935;50.782;6.074;2024-03-17T13:25:20;131.37;;;100.63;;
24857;SDS011;12935;50.782;6.074;2024-03-17T13:27:48;126.80;;;100.47;;
24857;SDS011;12935;50.782;6.074;2024-03-17T13:30:14;142.90;;;104.43;;
24857;SDS011;12935;50.782;6.074;2024-03-17T13:32:40;136.05;;;102.53;;
24857;SDS011;12935;50.782;6.074;2024-03-17T13:35:16;146.03;;;105.60;;
24857;SDS011;12935;50.782;6.074;2024-03-17T13:37:47;146.03;;;103.50;;
24857;SDS011;12935;50.782;6.074;2024-03-17T13:40:14;152.57;;;105.73;;
24857;SDS011;12935;50.782;6.074;2024-03-17T13:42:48;149.50;;;108.40;;
24857;SDS011;12935;50.782;6.074;2024-03-17T13:45:15;143.50;;;105.60;;
24857;SDS011;12935;50.782;6.074;2024-03-17T13:47:41;135.40;;;103.90;;
24857;SDS011;12935;50.782;6.074;2024-03-17T13:50:08;134.40;;;104.17;;
24857;SDS011;12935;50.782;6.074;2024-03-17T13:52:40;133.87;;;102.87;;
24857;SDS011;12935;50.782;6.074;2024-03-17T13:55:06;145.23;;;109.10;;
24857;SDS011;12935;50.782;6.074;2024-03-17T13:57:39;150.97;;;109.60;;
24857;SDS011;12935;50.782;6.074;2024-03-17T14:00:04;149.27;;;111.17;;
24857;SDS011;12935;50.782;6.074;2024-03-17T14:02:32;150.00;;;112.93;;
24857;SDS011;12935;50.782;6.074;2024-03-17T14:04:57;148.07;;;115.23;;
24857;SDS011;12935;50.782;6.074;2024-03-17T14:07:23;151.30;;;115.47;;
24857;SDS011;12935;50.782;6.074;2024-03-17T14:09:49;156.23;;;113.17;;
24857;SDS011;12935;50.782;6.074;2024-03-17T14:12:14;143.67;;;111.70;;
24857;SDS011;12935;50.782;6.074;2024-03-17T14:14:39;154.40;;;115.03;;
24857;SDS011;12935;50.782;6.074;2024-03-17T14:17:04;156.70;;;113.40;;
24857;SDS011;12935;50.782;6.074;2024-03-17T14:19:31;150.77;;;113.87;;
24857;SDS011;12935;50.782;6.074;2024-03-17T14:21:56;140.47;;;109.80;;
24857;SDS011;12935;50.782;6.074;2024-03-17T14:24:22;151.37;;;114.10;;
24857;SDS011;12935;50.782;6.074;2024-03-17T14:26:47;162.37;;;116.53;;
24857;SDS011;12935;50.782;6.074;2024-03-17T14:29:13;161.13;;;117.40;;
24857;SDS011;12935;50.782;6.074;2024-03-17T14:31:39;139.17;;;110.53;;
24857;SDS011;12935;50.782;6.074;2024-03-17T14:34:08;152.07;;;115.07;;
24857;SDS011;12935;50.782;6.074;2024-03-17T14:36:35;141.57;;;111.93;;
24857;SDS011;12935;50.782;6.074;2024-03-17T14:39:01;147.63;;;118.07;;
24857;SDS011;12935;50.782;6.074;2024-03-17T14:41:30;142.90;;;113.60;;
24857;SDS011;12935;50.782;6.074;2024-03-17T14:43:56;154.60;;;117.10;;
24857;SDS011;12935;50.782;6.074;2024-03-17T14:46:22;143.83;;;113.87;;